sensor_id;sensor_type;location;lat;lon;timestamp;P1;durP1;ratioP1;P2;durP2;ratioP2
54929;SDS011;40833;53.238;6.576;2023-02-16T00:01:55;74.13;;;42.10;;
54929;SDS011;40833;53.238;6.576;2023-02-16T00:06:47;77.70;;;43.03;;
54929;SDS011;40833;53.238;6.576;2023-02-16T00:09:13;77.13;;;43.87;;
54929;SDS011;40833;53.238;6.576;2023-02-16T00:11:40;76.90;;;43.30;;
54929;SDS011;40833;53.238;6.576;2023-02-16T00:14:25;82.77;;;44.53;;
54929;SDS011;40833;53.238;6.576;2023-02-16T00:16:55;83.53;;;45.57;;
54929;SDS011;40833;53.238;6.576;2023-02-16T00:19:29;76.10;;;44.50;;
54929;SDS011;40833;53.238;6.576;2023-02-16T00:22:00;81.27;;;45.23;;
54929;SDS011;40833;53.238;6.576;2023-02-16T00:24:27;77.30;;;43.67;;
54929;SDS011;40833;53.238;6.576;2023-02-16T00:26:54;79.13;;;44.10;;
54929;SDS011;40833;53.238;6.576;2023-02-16T00:31:51;75.53;;;45.50;;
54929;SDS011;40833;53.238;6.576;2023-02-16T00:36:46;82.17;;;45.47;;
54929;SDS011;40833;53.238;6.576;2023-02-16T00:39:12;82.67;;;44.53;;
54929;SDS011;40833;53.238;6.576;2023-02-16T00:41:37;78.70;;;42.47;;
54929;SDS011;40833;53.238;6.576;2023-02-16T00:47:20;78.00;;;43.93;;
54929;SDS011;40833;53.238;6.576;2023-02-16T00:50:13;74.88;;;44.42;;
54929;SDS011;40833;53.238;6.576;2023-02-16T00:52:41;77.93;;;43.40;;
54929;SDS011;40833;53.238;6.576;2023-02-16T00:55:11;82.80;;;46.07;;
54929;SDS011;40833;53.238;6.576;2023-02-16T00:57:41;75.72;;;42.80;;
54929;SDS011;40833;53.238;6.576;2023-02-16T01:02:59;82.40;;;45.37;;
54929;SDS011;40833;53.238;6.576;2023-02-16T01:05:33;81.40;;;44.50;;
54929;SDS011;40833;53.238;6.576;2023-02-16T01:07:59;86.70;;;45.90;;
54929;SDS011;40833;53.238;6.576;2023-02-16T01:10:43;80.10;;;45.37;;
54929;SDS011;40833;53.238;6.576;2023-02-16T01:13:28;81.73;;;45.23;;
54929;SDS011;40833;53.238;6.576;2023-02-16T01:15:55;79.27;;;43.27;;
54929;SDS011;40833;53.238;6.576;2023-02-16T01:18:21;81.03;;;44.47;;
54929;SDS011;40833;53.238;6.576;2023-02-16T01:20:48;78.87;;;44.57;;
54929;SDS011;40833;53.238;6.576;2023-02-16T01:23:14;80.27;;;45.50;;
54929;SDS011;40833;53.238;6.576;2023-02-16T01:25:39;78.10;;;45.47;;
54929;SDS011;40833;53.238;6.576;2023-02-16T01:28:15;83.83;;;45.50;;
54929;SDS011;40833;53.238;6.576;2023-02-16T01:30:44;78.40;;;45.33;;
54929;SDS011;40833;53.238;6.576;2023-02-16T01:33:10;81.00;;;44.20;;
54929;SDS011;40833;53.238;6.576;2023-02-16T01:35:35;78.60;;;44.57;;
54929;SDS011;40833;53.238;6.576;2023-02-16T01:38:01;85.13;;;45.47;;
54929;SDS011;40833;53.238;6.576;2023-02-16T01:43:18;79.03;;;44.40;;
54929;SDS011;40833;53.238;6.576;2023-02-16T01:46:13;84.47;;;45.97;;
54929;SDS011;40833;53.238;6.576;2023-02-16T01:51:15;77.03;;;43.90;;
54929;SDS011;40833;53.238;6.576;2023-02-16T01:53:52;82.37;;;45.93;;
54929;SDS011;40833;53.238;6.576;2023-02-16T01:59:09;76.35;;;43.80;;
54929;SDS011;40833;53.238;6.576;2023-02-16T02:01:58;80.87;;;45.40;;
54929;SDS011;40833;53.238;6.576;2023-02-16T02:04:49;83.93;;;45.63;;
54929;SDS011;40833;53.238;6.576;2023-02-16T02:07:41;81.63;;;44.73;;
54929;SDS011;40833;53.238;6.576;2023-02-16T02:13:37;76.70;;;44.37;;
54929;SDS011;40833;53.238;6.576;2023-02-16T02:16:07;80.57;;;45.00;;
54929;SDS011;40833;53.238;6.576;2023-02-16T02:18:34;78.53;;;43.87;;
54929;SDS011;40833;53.238;6.576;2023-02-16T02:32:38;76.50;;;43.77;;
54929;SDS011;40833;53.238;6.576;2023-02-16T02:38:08;80.63;;;44.30;;
54929;SDS011;40833;53.238;6.576;2023-02-16T02:48:30;78.07;;;43.83;;
54929;SDS011;40833;53.238;6.576;2023-02-16T02:50:57;78.73;;;42.20;;
54929;SDS011;40833;53.238;6.576;2023-02-16T02:53:46;81.97;;;45.10;;
54929;SDS011;40833;53.238;6.576;2023-02-16T02:56:37;83.40;;;43.40;;
54929;SDS011;40833;53.238;6.576;2023-02-16T02:59:23;74.40;;;44.63;;
54929;SDS011;40833;53.238;6.576;2023-02-16T03:02:10;76.50;;;43.87;;
54929;SDS011;40833;53.238;6.576;2023-02-16T03:04:37;75.43;;;43.47;;
54929;SDS011;40833;53.238;6.576;2023-02-16T03:07:03;82.63;;;44.30;;
54929;SDS011;40833;53.238;6.576;2023-02-16T03:09:30;78.83;;;43.83;;
54929;SDS011;40833;53.238;6.576;2023-02-16T03:11:56;77.83;;;42.77;;
54929;SDS011;40833;53.238;6.576;2023-02-16T03:14:46;76.63;;;44.13;;
54929;SDS011;40833;53.238;6.576;2023-02-16T03:17:16;71.70;;;44.87;;
54929;SDS011;40833;53.238;6.576;2023-02-16T03:20:05;75.57;;;43.70;;
54929;SDS011;40833;53.238;6.576;2023-02-16T03:22:51;76.47;;;43.83;;
54929;SDS011;40833;53.238;6.576;2023-02-16T03:25:36;78.87;;;44.57;;
54929;SDS011;40833;53.238;6.576;2023-02-16T03:28:23;73.97;;;42.97;;
54929;SDS011;40833;53.238;6.576;2023-02-16T03:31:13;73.90;;;42.97;;
54929;SDS011;40833;53.238;6.576;2023-02-16T03:33:47;69.83;;;42.43;;
54929;SDS011;40833;53.238;6.576;2023-02-16T03:36:22;75.20;;;43.97;;
54929;SDS011;40833;53.238;6.576;2023-02-16T03:38:51;76.70;;;41.83;;
54929;SDS011;40833;53.238;6.576;2023-02-16T03:41:18;73.73;;;42.60;;
54929;SDS011;40833;53.238;6.576;2023-02-16T03:43:43;73.17;;;43.67;;
54929;SDS011;40833;53.238;6.576;2023-02-16T03:46:09;75.77;;;42.57;;
54929;SDS011;40833;53.238;6.576;2023-02-16T03:48:35;73.33;;;44.07;;
54929;SDS011;40833;53.238;6.576;2023-02-16T03:51:00;74.80;;;43.17;;
54929;SDS011;40833;53.238;6.576;2023-02-16T03:53:26;79.00;;;44.50;;
54929;SDS011;40833;53.238;6.576;2023-02-16T03:55:52;75.17;;;44.63;;
54929;SDS011;40833;53.238;6.576;2023-02-16T03:58:18;73.57;;;43.50;;
54929;SDS011;40833;53.238;6.576;2023-02-16T04:00:46;71.57;;;42.80;;
54929;SDS011;40833;53.238;6.576;2023-02-16T04:03:12;76.07;;;43.83;;
54929;SDS011;40833;53.238;6.576;2023-02-16T04:05:39;71.17;;;41.33;;
54929;SDS011;40833;53.238;6.576;2023-02-16T04:08:05;76.87;;;45.97;;
54929;SDS011;40833;53.238;6.576;2023-02-16T04:10:31;72.00;;;42.07;;
54929;SDS011;40833;53.238;6.576;2023-02-16T04:12:57;75.30;;;43.77;;
54929;SDS011;40833;53.238;6.576;2023-02-16T04:15:24;72.90;;;43.20;;
54929;SDS011;40833;53.238;6.576;2023-02-16T04:17:52;68.43;;;42.37;;
54929;SDS011;40833;53.238;6.576;2023-02-16T04:20:19;73.53;;;43.30;;
54929;SDS011;40833;53.238;6.576;2023-02-16T04:22:47;70.07;;;41.93;;
54929;SDS011;40833;53.238;6.576;2023-02-16T04:25:14;75.93;;;43.03;;
54929;SDS011;40833;53.238;6.576;2023-02-16T04:27:41;76.13;;;43.83;;
54929;SDS011;40833;53.238;6.576;2023-02-16T04:30:08;71.87;;;43.67;;
54929;SDS011;40833;53.238;6.576;2023-02-16T04:32:36;74.03;;;41.37;;
54929;SDS011;40833;53.238;6.576;2023-02-16T04:35:02;73.33;;;44.30;;
54929;SDS011;40833;53.238;6.576;2023-02-16T04:37:28;69.27;;;42.63;;
54929;SDS011;40833;53.238;6.576;2023-02-16T04:39:53;71.93;;;42.47;;
54929;SDS011;40833;53.238;6.576;2023-02-16T04:42:19;73.57;;;43.70;;
54929;SDS011;40833;53.238;6.576;2023-02-16T04:44:45;72.60;;;43.43;;
54929;SDS011;40833;53.238;6.576;2023-02-16T04:47:10;70.00;;;43.00;;
54929;SDS011;40833;53.238;6.576;2023-02-16T04:49:36;75.70;;;43.77;;
54929;SDS011;40833;53.238;6.576;2023-02-16T04:52:02;72.83;;;43.90;;
54929;SDS011;40833;53.238;6.576;2023-02-16T04:54:29;74.70;;;43.47;;
54929;SDS011;40833;53.238;6.576;2023-02-16T04:56:55;71.73;;;42.40;;
54929;SDS011;40833;53.238;6.576;2023-02-16T04:59:21;74.67;;;47.30;;
54929;SDS011;40833;53.238;6.576;2023-02-16T05:01:47;75.67;;;43.07;;
54929;SDS011;40833;53.238;6.576;2023-02-16T05:04:13;71.93;;;43.97;;
54929;SDS011;40833;53.238;6.576;2023-02-16T05:06:40;71.17;;;43.40;;
54929;SDS011;40833;53.238;6.576;2023-02-16T05:09:07;69.43;;;42.07;;
54929;SDS011;40833;53.238;6.576;2023-02-16T05:11:33;73.37;;;42.93;;
54929;SDS011;40833;53.238;6.576;2023-02-16T05:14:22;70.97;;;42.53;;
54929;SDS011;40833;53.238;6.576;2023-02-16T05:17:22;72.27;;;43.40;;
54929;SDS011;40833;53.238;6.576;2023-02-16T05:19:50;71.13;;;41.90;;
54929;SDS011;40833;53.238;6.576;2023-02-16T05:22:20;75.47;;;45.73;;
54929;SDS011;40833;53.238;6.576;2023-02-16T05:24:46;73.10;;;43.90;;
54929;SDS011;40833;53.238;6.576;2023-02-16T05:27:15;82.13;;;43.07;;
54929;SDS011;40833;53.238;6.576;2023-02-16T05:29:45;75.75;;;44.05;;
54929;SDS011;40833;53.238;6.576;2023-02-16T05:32:11;73.00;;;44.50;;
54929;SDS011;40833;53.238;6.576;2023-02-16T05:34:37;70.83;;;43.67;;
54929;SDS011;40833;53.238;6.576;2023-02-16T05:37:02;69.83;;;43.17;;
54929;SDS011;40833;53.238;6.576;2023-02-16T05:39:28;78.57;;;43.90;;
54929;SDS011;40833;53.238;6.576;2023-02-16T05:41:54;71.37;;;44.37;;
54929;SDS011;40833;53.238;6.576;2023-02-16T05:44:20;76.43;;;44.27;;
54929;SDS011;40833;53.238;6.576;2023-02-16T05:46:46;68.73;;;42.60;;
54929;SDS011;40833;53.238;6.576;2023-02-16T05:49:12;71.53;;;43.63;;
54929;SDS011;40833;53.238;6.576;2023-02-16T05:51:38;76.50;;;45.03;;
54929;SDS011;40833;53.238;6.576;2023-02-16T05:54:05;73.10;;;42.60;;
54929;SDS011;40833;53.238;6.576;2023-02-16T05:56:31;75.27;;;45.77;;
54929;SDS011;40833;53.238;6.576;2023-02-16T05:58:57;74.67;;;42.87;;
54929;SDS011;40833;53.238;6.576;2023-02-16T06:01:24;74.97;;;45.67;;
54929;SDS011;40833;53.238;6.576;2023-02-16T06:03:51;75.13;;;45.10;;
54929;SDS011;40833;53.238;6.576;2023-02-16T06:06:17;68.63;;;44.00;;
54929;SDS011;40833;53.238;6.576;2023-02-16T06:08:43;70.33;;;43.37;;
54929;SDS011;40833;53.238;6.576;2023-02-16T06:11:09;75.43;;;44.60;;
54929;SDS011;40833;53.238;6.576;2023-02-16T06:13:53;78.40;;;46.43;;
54929;SDS011;40833;53.238;6.576;2023-02-16T06:16:22;77.23;;;46.10;;
54929;SDS011;40833;53.238;6.576;2023-02-16T06:18:52;76.20;;;44.73;;
54929;SDS011;40833;53.238;6.576;2023-02-16T06:21:18;76.50;;;45.93;;
54929;SDS011;40833;53.238;6.576;2023-02-16T06:23:44;75.73;;;44.50;;
54929;SDS011;40833;53.238;6.576;2023-02-16T06:26:10;71.90;;;43.23;;
54929;SDS011;40833;53.238;6.576;2023-02-16T06:28:36;74.30;;;45.17;;
54929;SDS011;40833;53.238;6.576;2023-02-16T06:31:02;73.40;;;45.53;;
54929;SDS011;40833;53.238;6.576;2023-02-16T06:33:27;73.17;;;44.63;;
54929;SDS011;40833;53.238;6.576;2023-02-16T06:35:53;74.17;;;44.20;;
54929;SDS011;40833;53.238;6.576;2023-02-16T06:38:19;76.87;;;46.20;;
54929;SDS011;40833;53.238;6.576;2023-02-16T06:40:44;70.80;;;44.80;;
54929;SDS011;40833;53.238;6.576;2023-02-16T06:43:10;75.47;;;45.03;;
54929;SDS011;40833;53.238;6.576;2023-02-16T06:45:36;78.43;;;46.53;;
54929;SDS011;40833;53.238;6.576;2023-02-16T06:48:01;81.40;;;46.67;;
54929;SDS011;40833;53.238;6.576;2023-02-16T06:50:27;80.13;;;45.43;;
54929;SDS011;40833;53.238;6.576;2023-02-16T06:52:53;82.63;;;47.37;;
54929;SDS011;40833;53.238;6.576;2023-02-16T06:55:18;86.03;;;45.37;;
54929;SDS011;40833;53.238;6.576;2023-02-16T06:57:44;73.83;;;45.03;;
54929;SDS011;40833;53.238;6.576;2023-02-16T07:00:10;78.10;;;46.77;;
54929;SDS011;40833;53.238;6.576;2023-02-16T07:02:36;80.63;;;47.63;;
54929;SDS011;40833;53.238;6.576;2023-02-16T07:05:02;76.10;;;47.47;;
54929;SDS011;40833;53.238;6.576;2023-02-16T07:07:28;73.73;;;46.47;;
54929;SDS011;40833;53.238;6.576;2023-02-16T07:09:53;80.53;;;47.83;;
54929;SDS011;40833;53.238;6.576;2023-02-16T07:12:19;79.60;;;47.07;;
54929;SDS011;40833;53.238;6.576;2023-02-16T07:14:45;75.70;;;45.87;;
54929;SDS011;40833;53.238;6.576;2023-02-16T07:17:11;82.30;;;48.90;;
54929;SDS011;40833;53.238;6.576;2023-02-16T07:19:36;76.87;;;48.20;;
54929;SDS011;40833;53.238;6.576;2023-02-16T07:22:02;81.73;;;47.47;;
54929;SDS011;40833;53.238;6.576;2023-02-16T07:24:29;78.20;;;46.73;;
54929;SDS011;40833;53.238;6.576;2023-02-16T07:26:55;77.03;;;45.77;;
54929;SDS011;40833;53.238;6.576;2023-02-16T07:29:20;79.60;;;48.00;;
54929;SDS011;40833;53.238;6.576;2023-02-16T07:31:46;79.60;;;47.40;;
54929;SDS011;40833;53.238;6.576;2023-02-16T07:34:12;72.70;;;45.93;;
54929;SDS011;40833;53.238;6.576;2023-02-16T07:36:38;72.67;;;46.73;;
54929;SDS011;40833;53.238;6.576;2023-02-16T07:39:03;76.43;;;47.97;;
54929;SDS011;40833;53.238;6.576;2023-02-16T07:41:29;79.00;;;46.37;;
54929;SDS011;40833;53.238;6.576;2023-02-16T07:43:55;80.80;;;47.87;;
54929;SDS011;40833;53.238;6.576;2023-02-16T07:46:20;78.70;;;48.63;;
54929;SDS011;40833;53.238;6.576;2023-02-16T07:48:47;74.33;;;47.57;;
54929;SDS011;40833;53.238;6.576;2023-02-16T07:51:19;76.43;;;46.23;;
54929;SDS011;40833;53.238;6.576;2023-02-16T07:53:46;79.30;;;47.47;;
54929;SDS011;40833;53.238;6.576;2023-02-16T07:56:19;73.37;;;47.77;;
54929;SDS011;40833;53.238;6.576;2023-02-16T07:58:45;81.60;;;48.77;;
54929;SDS011;40833;53.238;6.576;2023-02-16T08:01:11;78.77;;;48.07;;
54929;SDS011;40833;53.238;6.576;2023-02-16T08:03:38;77.20;;;47.37;;
54929;SDS011;40833;53.238;6.576;2023-02-16T08:06:05;82.90;;;48.60;;
54929;SDS011;40833;53.238;6.576;2023-02-16T08:08:32;74.17;;;46.50;;
54929;SDS011;40833;53.238;6.576;2023-02-16T08:10:57;78.43;;;47.20;;
54929;SDS011;40833;53.238;6.576;2023-02-16T08:13:23;78.40;;;48.63;;
54929;SDS011;40833;53.238;6.576;2023-02-16T08:15:49;80.37;;;47.20;;
54929;SDS011;40833;53.238;6.576;2023-02-16T08:18:14;81.33;;;46.63;;
54929;SDS011;40833;53.238;6.576;2023-02-16T08:20:40;77.27;;;46.43;;
54929;SDS011;40833;53.238;6.576;2023-02-16T08:23:06;73.07;;;45.77;;
54929;SDS011;40833;53.238;6.576;2023-02-16T08:25:34;71.00;;;44.37;;
54929;SDS011;40833;53.238;6.576;2023-02-16T08:28:01;70.43;;;44.90;;
54929;SDS011;40833;53.238;6.576;2023-02-16T08:30:27;78.67;;;47.37;;
54929;SDS011;40833;53.238;6.576;2023-02-16T08:32:53;73.73;;;46.57;;
54929;SDS011;40833;53.238;6.576;2023-02-16T08:35:24;85.47;;;45.80;;
54929;SDS011;40833;53.238;6.576;2023-02-16T08:37:51;79.20;;;48.03;;
54929;SDS011;40833;53.238;6.576;2023-02-16T08:40:17;75.13;;;46.37;;
54929;SDS011;40833;53.238;6.576;2023-02-16T08:42:43;73.60;;;46.87;;
54929;SDS011;40833;53.238;6.576;2023-02-16T08:45:08;74.17;;;46.37;;
54929;SDS011;40833;53.238;6.576;2023-02-16T08:47:35;79.70;;;47.93;;
54929;SDS011;40833;53.238;6.576;2023-02-16T08:50:00;74.77;;;47.13;;
54929;SDS011;40833;53.238;6.576;2023-02-16T08:52:26;76.00;;;47.40;;
54929;SDS011;40833;53.238;6.576;2023-02-16T08:54:52;78.30;;;47.00;;
54929;SDS011;40833;53.238;6.576;2023-02-16T08:57:18;79.60;;;47.40;;
54929;SDS011;40833;53.238;6.576;2023-02-16T08:59:43;83.50;;;47.37;;
54929;SDS011;40833;53.238;6.576;2023-02-16T09:02:09;74.73;;;44.87;;
54929;SDS011;40833;53.238;6.576;2023-02-16T09:04:35;80.37;;;46.50;;
54929;SDS011;40833;53.238;6.576;2023-02-16T09:07:02;79.20;;;47.90;;
54929;SDS011;40833;53.238;6.576;2023-02-16T09:09:28;83.20;;;47.83;;
54929;SDS011;40833;53.238;6.576;2023-02-16T09:11:54;75.80;;;45.43;;
54929;SDS011;40833;53.238;6.576;2023-02-16T09:14:21;83.33;;;47.83;;
54929;SDS011;40833;53.238;6.576;2023-02-16T09:16:47;81.17;;;46.97;;
54929;SDS011;40833;53.238;6.576;2023-02-16T09:19:17;83.50;;;46.77;;
54929;SDS011;40833;53.238;6.576;2023-02-16T09:21:45;85.23;;;48.07;;
54929;SDS011;40833;53.238;6.576;2023-02-16T09:24:11;79.47;;;45.60;;
54929;SDS011;40833;53.238;6.576;2023-02-16T09:26:37;84.20;;;46.20;;
54929;SDS011;40833;53.238;6.576;2023-02-16T09:29:06;79.50;;;45.77;;
54929;SDS011;40833;53.238;6.576;2023-02-16T09:31:33;82.27;;;46.47;;
54929;SDS011;40833;53.238;6.576;2023-02-16T09:34:02;90.57;;;48.30;;
54929;SDS011;40833;53.238;6.576;2023-02-16T09:36:30;80.60;;;48.37;;
54929;SDS011;40833;53.238;6.576;2023-02-16T09:38:56;79.87;;;45.33;;
54929;SDS011;40833;53.238;6.576;2023-02-16T09:47:08;81.70;;;44.27;;
54929;SDS011;40833;53.238;6.576;2023-02-16T09:49:43;77.40;;;45.87;;
54929;SDS011;40833;53.238;6.576;2023-02-16T09:55:16;81.40;;;44.47;;
54929;SDS011;40833;53.238;6.576;2023-02-16T10:03:16;75.00;;;45.27;;
54929;SDS011;40833;53.238;6.576;2023-02-16T10:08:31;84.77;;;45.43;;
54929;SDS011;40833;53.238;6.576;2023-02-16T10:11:09;75.70;;;45.30;;
54929;SDS011;40833;53.238;6.576;2023-02-16T10:14:43;78.40;;;44.60;;
54929;SDS011;40833;53.238;6.576;2023-02-16T10:19:40;76.20;;;43.47;;
54929;SDS011;40833;53.238;6.576;2023-02-16T10:22:13;78.53;;;45.97;;
54929;SDS011;40833;53.238;6.576;2023-02-16T10:24:45;77.77;;;45.80;;
54929;SDS011;40833;53.238;6.576;2023-02-16T10:27:28;83.93;;;45.77;;
54929;SDS011;40833;53.238;6.576;2023-02-16T10:30:04;85.27;;;46.27;;
54929;SDS011;40833;53.238;6.576;2023-02-16T10:32:42;75.03;;;45.90;;
54929;SDS011;40833;53.238;6.576;2023-02-16T10:35:23;82.43;;;45.50;;
54929;SDS011;40833;53.238;6.576;2023-02-16T10:46:43;80.63;;;46.13;;
54929;SDS011;40833;53.238;6.576;2023-02-16T10:49:13;87.83;;;47.90;;
54929;SDS011;40833;53.238;6.576;2023-02-16T10:51:41;83.83;;;47.07;;
54929;SDS011;40833;53.238;6.576;2023-02-16T10:54:17;80.93;;;46.72;;
54929;SDS011;40833;53.238;6.576;2023-02-16T10:56:52;82.53;;;47.23;;
54929;SDS011;40833;53.238;6.576;2023-02-16T11:02:02;91.37;;;47.60;;
54929;SDS011;40833;53.238;6.576;2023-02-16T11:04:41;88.17;;;48.37;;
54929;SDS011;40833;53.238;6.576;2023-02-16T11:07:13;87.37;;;46.90;;
54929;SDS011;40833;53.238;6.576;2023-02-16T11:09:43;90.45;;;47.63;;
54929;SDS011;40833;53.238;6.576;2023-02-16T11:12:24;87.07;;;47.13;;
54929;SDS011;40833;53.238;6.576;2023-02-16T11:15:02;93.43;;;48.97;;
54929;SDS011;40833;53.238;6.576;2023-02-16T11:18:07;92.40;;;48.93;;
54929;SDS011;40833;53.238;6.576;2023-02-16T11:25:54;90.32;;;49.13;;
54929;SDS011;40833;53.238;6.576;2023-02-16T11:33:38;88.50;;;51.08;;
54929;SDS011;40833;53.238;6.576;2023-02-16T11:36:26;94.87;;;50.17;;
54929;SDS011;40833;53.238;6.576;2023-02-16T11:39:20;87.10;;;46.13;;
54929;SDS011;40833;53.238;6.576;2023-02-16T11:41:55;90.30;;;49.10;;
54929;SDS011;40833;53.238;6.576;2023-02-16T11:44:39;86.40;;;48.67;;
54929;SDS011;40833;53.238;6.576;2023-02-16T11:47:24;89.23;;;48.97;;
54929;SDS011;40833;53.238;6.576;2023-02-16T11:52:48;95.43;;;53.60;;
54929;SDS011;40833;53.238;6.576;2023-02-16T12:00:37;88.87;;;51.03;;
54929;SDS011;40833;53.238;6.576;2023-02-16T12:03:10;90.80;;;51.03;;
54929;SDS011;40833;53.238;6.576;2023-02-16T12:16:33;103.07;;;51.90;;
54929;SDS011;40833;53.238;6.576;2023-02-16T12:21:38;93.27;;;50.57;;
54929;SDS011;40833;53.238;6.576;2023-02-16T12:27:23;82.37;;;44.90;;
54929;SDS011;40833;53.238;6.576;2023-02-16T12:30:05;87.87;;;48.13;;
54929;SDS011;40833;53.238;6.576;2023-02-16T12:35:55;83.60;;;47.03;;
54929;SDS011;40833;53.238;6.576;2023-02-16T12:41:25;83.73;;;47.07;;
54929;SDS011;40833;53.238;6.576;2023-02-16T12:47:10;67.73;;;40.57;;
54929;SDS011;40833;53.238;6.576;2023-02-16T12:50:05;63.80;;;35.87;;
54929;SDS011;40833;53.238;6.576;2023-02-16T12:52:47;59.00;;;36.27;;
54929;SDS011;40833;53.238;6.576;2023-02-16T12:55:47;62.57;;;36.63;;
54929;SDS011;40833;53.238;6.576;2023-02-16T12:58:18;61.83;;;36.77;;
54929;SDS011;40833;53.238;6.576;2023-02-16T13:00:55;57.93;;;35.80;;
54929;SDS011;40833;53.238;6.576;2023-02-16T13:06:51;57.47;;;34.97;;
54929;SDS011;40833;53.238;6.576;2023-02-16T13:09:36;56.47;;;35.30;;
54929;SDS011;40833;53.238;6.576;2023-02-16T13:15:08;62.07;;;36.97;;
54929;SDS011;40833;53.238;6.576;2023-02-16T13:17:48;57.53;;;36.07;;
54929;SDS011;40833;53.238;6.576;2023-02-16T13:20:22;60.07;;;36.17;;
54929;SDS011;40833;53.238;6.576;2023-02-16T13:39:50;50.73;;;29.33;;
54929;SDS011;40833;53.238;6.576;2023-02-16T13:42:50;41.00;;;26.47;;
54929;SDS011;40833;53.238;6.576;2023-02-16T13:45:39;41.70;;;26.30;;
54929;SDS011;40833;53.238;6.576;2023-02-16T13:48:11;37.53;;;24.70;;
54929;SDS011;40833;53.238;6.576;2023-02-16T13:50:56;42.20;;;24.77;;
54929;SDS011;40833;53.238;6.576;2023-02-16T13:53:32;37.60;;;25.53;;
54929;SDS011;40833;53.238;6.576;2023-02-16T13:56:21;37.37;;;23.90;;
54929;SDS011;40833;53.238;6.576;2023-02-16T14:01:43;40.60;;;24.00;;
54929;SDS011;40833;53.238;6.576;2023-02-16T14:06:49;36.77;;;22.60;;
54929;SDS011;40833;53.238;6.576;2023-02-16T14:19:38;26.07;;;18.57;;
54929;SDS011;40833;53.238;6.576;2023-02-16T14:22:20;29.53;;;19.70;;
54929;SDS011;40833;53.238;6.576;2023-02-16T14:24:59;29.53;;;19.27;;
54929;SDS011;40833;53.238;6.576;2023-02-16T14:35:36;30.43;;;20.30;;
54929;SDS011;40833;53.238;6.576;2023-02-16T14:41:22;33.40;;;22.80;;
54929;SDS011;40833;53.238;6.576;2023-02-16T14:43:49;34.55;;;22.70;;
54929;SDS011;40833;53.238;6.576;2023-02-16T14:58:30;35.63;;;23.33;;
54929;SDS011;40833;53.238;6.576;2023-02-16T15:01:02;38.70;;;26.65;;
54929;SDS011;40833;53.238;6.576;2023-02-16T15:03:39;41.40;;;26.13;;
54929;SDS011;40833;53.238;6.576;2023-02-16T15:08:41;42.00;;;26.73;;
54929;SDS011;40833;53.238;6.576;2023-02-16T15:13:39;42.80;;;27.03;;
54929;SDS011;40833;53.238;6.576;2023-02-16T15:16:06;41.57;;;29.13;;
54929;SDS011;40833;53.238;6.576;2023-02-16T15:18:41;43.63;;;29.73;;
54929;SDS011;40833;53.238;6.576;2023-02-16T15:21:19;46.20;;;30.20;;
54929;SDS011;40833;53.238;6.576;2023-02-16T15:23:51;48.33;;;31.00;;
54929;SDS011;40833;53.238;6.576;2023-02-16T15:26:23;46.78;;;30.85;;
54929;SDS011;40833;53.238;6.576;2023-02-16T15:28:59;46.38;;;31.63;;
54929;SDS011;40833;53.238;6.576;2023-02-16T15:31:29;45.53;;;31.47;;
54929;SDS011;40833;53.238;6.576;2023-02-16T15:33:58;48.77;;;33.47;;
54929;SDS011;40833;53.238;6.576;2023-02-16T15:39:06;52.80;;;33.20;;
54929;SDS011;40833;53.238;6.576;2023-02-16T15:41:44;48.43;;;31.37;;
54929;SDS011;40833;53.238;6.576;2023-02-16T15:44:30;51.83;;;33.33;;
54929;SDS011;40833;53.238;6.576;2023-02-16T15:47:05;50.10;;;30.97;;
54929;SDS011;40833;53.238;6.576;2023-02-16T15:49:35;49.70;;;32.93;;
54929;SDS011;40833;53.238;6.576;2023-02-16T15:52:08;58.23;;;34.00;;
54929;SDS011;40833;53.238;6.576;2023-02-16T15:54:50;49.83;;;31.77;;
54929;SDS011;40833;53.238;6.576;2023-02-16T15:57:19;53.33;;;32.30;;
54929;SDS011;40833;53.238;6.576;2023-02-16T15:59:57;49.83;;;32.17;;
54929;SDS011;40833;53.238;6.576;2023-02-16T16:02:43;55.60;;;34.43;;
54929;SDS011;40833;53.238;6.576;2023-02-16T16:05:50;55.77;;;35.17;;
54929;SDS011;40833;53.238;6.576;2023-02-16T16:08:10;57.30;;;36.97;;
54929;SDS011;40833;53.238;6.576;2023-02-16T16:10:38;62.07;;;38.43;;
54929;SDS011;40833;53.238;6.576;2023-02-16T16:13:13;62.23;;;40.27;;
54929;SDS011;40833;53.238;6.576;2023-02-16T16:15:45;66.93;;;41.20;;
54929;SDS011;40833;53.238;6.576;2023-02-16T16:20:59;69.90;;;42.90;;
54929;SDS011;40833;53.238;6.576;2023-02-16T16:23:26;81.87;;;46.23;;
54929;SDS011;40833;53.238;6.576;2023-02-16T16:25:52;78.77;;;45.67;;
54929;SDS011;40833;53.238;6.576;2023-02-16T16:41:40;81.87;;;49.93;;
54929;SDS011;40833;53.238;6.576;2023-02-16T16:44:11;83.20;;;50.77;;
54929;SDS011;40833;53.238;6.576;2023-02-16T16:46:54;90.93;;;48.27;;
54929;SDS011;40833;53.238;6.576;2023-02-16T16:49:20;83.00;;;46.33;;
54929;SDS011;40833;53.238;6.576;2023-02-16T16:51:50;81.37;;;46.63;;
54929;SDS011;40833;53.238;6.576;2023-02-16T16:54:33;82.30;;;49.17;;
54929;SDS011;40833;53.238;6.576;2023-02-16T16:57:14;87.43;;;47.93;;
54929;SDS011;40833;53.238;6.576;2023-02-16T16:59:42;82.50;;;46.97;;
54929;SDS011;40833;53.238;6.576;2023-02-16T17:02:11;82.97;;;48.93;;
54929;SDS011;40833;53.238;6.576;2023-02-16T17:04:36;83.07;;;48.97;;
54929;SDS011;40833;53.238;6.576;2023-02-16T17:07:02;82.87;;;49.30;;
54929;SDS011;40833;53.238;6.576;2023-02-16T17:09:28;86.47;;;50.53;;
54929;SDS011;40833;53.238;6.576;2023-02-16T17:11:54;87.70;;;48.17;;
54929;SDS011;40833;53.238;6.576;2023-02-16T17:14:19;85.20;;;48.67;;
54929;SDS011;40833;53.238;6.576;2023-02-16T17:16:46;85.67;;;50.70;;
54929;SDS011;40833;53.238;6.576;2023-02-16T17:19:15;86.47;;;48.37;;
54929;SDS011;40833;53.238;6.576;2023-02-16T17:21:43;84.20;;;51.17;;
54929;SDS011;40833;53.238;6.576;2023-02-16T17:24:09;85.60;;;52.30;;
54929;SDS011;40833;53.238;6.576;2023-02-16T17:26:36;88.07;;;52.13;;
54929;SDS011;40833;53.238;6.576;2023-02-16T17:29:02;93.40;;;52.23;;
54929;SDS011;40833;53.238;6.576;2023-02-16T17:31:29;101.87;;;52.90;;
54929;SDS011;40833;53.238;6.576;2023-02-16T17:33:54;90.13;;;51.47;;
54929;SDS011;40833;53.238;6.576;2023-02-16T17:36:20;99.10;;;54.20;;
54929;SDS011;40833;53.238;6.576;2023-02-16T17:38:47;91.77;;;53.57;;
54929;SDS011;40833;53.238;6.576;2023-02-16T17:41:23;88.37;;;52.20;;
54929;SDS011;40833;53.238;6.576;2023-02-16T17:43:51;93.23;;;52.90;;
54929;SDS011;40833;53.238;6.576;2023-02-16T17:46:17;99.50;;;52.60;;
54929;SDS011;40833;53.238;6.576;2023-02-16T17:48:44;88.37;;;50.63;;
54929;SDS011;40833;53.238;6.576;2023-02-16T17:51:13;79.57;;;48.93;;
54929;SDS011;40833;53.238;6.576;2023-02-16T17:53:40;81.13;;;50.47;;
54929;SDS011;40833;53.238;6.576;2023-02-16T17:56:08;82.20;;;48.20;;
54929;SDS011;40833;53.238;6.576;2023-02-16T17:58:36;82.23;;;49.00;;
54929;SDS011;40833;53.238;6.576;2023-02-16T18:01:01;76.33;;;48.37;;
54929;SDS011;40833;53.238;6.576;2023-02-16T18:03:27;81.17;;;50.40;;
54929;SDS011;40833;53.238;6.576;2023-02-16T18:05:53;74.03;;;47.53;;
54929;SDS011;40833;53.238;6.576;2023-02-16T18:08:19;76.10;;;45.90;;
54929;SDS011;40833;53.238;6.576;2023-02-16T18:10:46;80.03;;;49.43;;
54929;SDS011;40833;53.238;6.576;2023-02-16T18:13:17;83.88;;;48.33;;